Terminal Aerodrome Forecast
Issued by NWS

Home | Current Version | Previous Version | Text Only | Print | Product List | Glossary Off
Versions: 1 2 3 4 5 6 7 8 9 10 11 12 13 14 15

000
FTUS43 KBIS 241138
TAFJMS
TAF
KJMS 241138Z 2412/2512 VRB05KT 2SM BR SCT002 SCT250
      TEMPO 2412/2413 1/4SM FG
     FM241500 15015KT P6SM SCT090=

USA.gov is the U.S. government's official web portal to all federal, state and local government web resources and services.